Time;durP1;ratioP1;P1;durP2;ratioP2;P2;SDS_P1;SDS_P2;PMS_P1;PMS_P2;Temp;Humidity;BMP_temperature;BMP_pressure;BME280_temperature;BME280_humidity;BME280_pressure;Samples;Min_cycle;Max_cycle;Signal;HPM_P1;HPM_P2
2021/12/26 00:00:31;;;;;;;40.88;2.90;;;10.70;54.60;;;;;;5070684;28;20173;-79
2021/12/26 00:02:58;;;;;;;37.08;2.65;;;10.80;54.20;;;;;;5070645;28;20237;-78
2021/12/26 00:05:24;;;;;;;31.58;2.47;;;;;;;;;;5069584;28;20176;-78
2021/12/26 00:07:50;;;;;;;26.17;2.63;;;;;;;;;;5058303;28;20228;-79
2021/12/26 00:10:18;;;;;;;53.10;3.60;;;10.90;53.80;;;;;;5058823;28;20252;-79
2021/12/26 00:12:44;;;;;;;31.33;2.55;;;;;;;;;;5058828;28;20415;-78
2021/12/26 00:15:10;;;;;;;43.53;2.83;;;;;;;;;;5058115;28;20478;-78
2021/12/26 00:17:36;;;;;;;25.38;2.33;;;;;;;;;;5057905;28;20211;-78
2021/12/26 00:20:05;;;;;;;22.17;2.28;;;10.80;53.50;;;;;;5057665;28;20170;-78
2021/12/26 00:22:31;;;;;;;27.15;2.50;;;10.80;52.50;;;;;;5058063;28;20187;-78
2021/12/26 00:24:57;;;;;;;30.60;3.17;;;;;;;;;;5058202;28;20173;-78
2021/12/26 00:27:23;;;;;;;27.30;2.30;;;;;;;;;;5057326;28;20187;-78
2021/12/26 00:29:49;;;;;;;38.80;2.65;;;;;;;;;;5057405;28;20404;-78
2021/12/26 00:32:15;;;;;;;36.47;2.53;;;;;;;;;;5057354;28;20674;-78
2021/12/26 00:34:41;;;;;;;32.33;2.65;;;10.40;54.90;;;;;;5057022;28;20269;-78
2021/12/26 00:37:08;;;;;;;39.20;2.60;;;10.20;55.40;;;;;;5056663;28;20235;-78
2021/12/26 00:39:35;;;;;;;24.90;2.70;;;;;;;;;;5057075;28;20182;-78
2021/12/26 00:42:01;;;;;;;56.70;3.00;;;;;;;;;;5056366;28;20203;-78
2021/12/26 00:44:27;;;;;;;29.92;2.88;;;;;;;;;;5057396;28;20178;-78
2021/12/26 00:46:56;;;;;;;32.10;2.83;;;;;;;;;;5056563;28;20238;-78
2021/12/26 00:49:23;;;;;;;30.15;2.45;;;10.30;55.20;;;;;;5057185;28;20173;-78
2021/12/26 00:51:50;;;;;;;31.85;2.60;;;;;;;;;;5055433;28;20270;-78
2021/12/26 00:54:17;;;;;;;35.47;2.40;;;10.40;54.40;;;;;;5056758;28;20227;-78
2021/12/26 00:56:43;;;;;;;34.15;2.67;;;10.50;53.90;;;;;;5055253;28;20328;-78
2021/12/26 00:59:08;;;;;;;41.43;3.20;;;10.50;54.20;;;;;;5056892;28;20648;-78
2021/12/26 01:01:34;;;;;;;21.03;2.10;;;10.40;54.50;;;;;;5055632;28;20419;-78
2021/12/26 01:04:00;;;;;;;30.37;2.47;;;10.30;54.80;;;;;;5055742;28;20181;-78
2021/12/26 01:06:27;;;;;;;25.60;2.73;;;10.30;54.90;;;;;;5055955;28;20431;-78
2021/12/26 01:08:53;;;;;;;26.80;2.15;;;;;;;;;;5056511;28;20418;-79
2021/12/26 01:11:34;;;;;;;31.38;2.50;;;10.30;53.90;;;;;;5056763;28;20196;-78
2021/12/26 01:14:01;;;;;;;52.38;3.53;;;10.30;54.10;;;;;;5055985;28;20170;-78
2021/12/26 01:16:28;;;;;;;45.75;3.28;;;10.40;54.10;;;;;;5055418;28;20216;-78
2021/12/26 01:19:00;;;;;;;27.67;2.25;;;;;;;;;;5055494;28;20168;-78
2021/12/26 01:21:26;;;;;;;16.95;1.95;;;;;;;;;;5056318;28;20613;-78
2021/12/26 01:23:54;;;;;;;22.02;2.05;;;;;;;;;;5056205;28;20174;-78
2021/12/26 01:26:20;;;;;;;31.95;2.60;;;;;;;;;;5055338;28;20963;-78
2021/12/26 01:28:47;;;;;;;22.65;2.05;;;;;;;;;;5056329;28;20177;-78
2021/12/26 01:31:18;;;;;;;31.67;2.50;;;;;;;;;;5056741;28;20285;-78
2021/12/26 01:33:45;;;;;;;29.33;3.28;;;;;;;;;;5056667;28;20248;-79
2021/12/26 01:36:11;;;;;;;77.00;4.30;;;;;;;;;;5056035;28;20193;-78
2021/12/26 01:38:37;;;;;;;26.03;2.07;;;;;;;;;;5056495;28;20246;-78
2021/12/26 01:41:09;;;;;;;22.27;2.03;;;;;;;;;;5056157;28;21007;-79
2021/12/26 01:43:35;;;;;;;14.43;1.55;;;;;;;;;;5057869;28;20398;-78
2021/12/26 01:46:01;;;;;;;86.15;4.88;;;;;;;;;;5057318;28;20203;-78
2021/12/26 01:48:27;;;;;;;29.92;2.72;;;10.50;52.70;;;;;;5055536;28;20188;-78
2021/12/26 01:50:54;;;;;;;26.73;2.10;;;10.40;54.20;;;;;;5057976;28;20197;-78
2021/12/26 01:53:23;;;;;;;25.60;2.35;;;;;;;;;;5056459;28;20196;-79
2021/12/26 01:55:49;;;;;;;39.72;2.50;;;;;;;;;;5056297;28;20168;-78
2021/12/26 01:58:23;;;;;;;30.10;2.95;;;;;;;;;;5054667;28;20566;-78
2021/12/26 02:01:02;;;;;;;24.75;2.22;;;10.30;52.70;;;;;;5056174;28;20647;-78
2021/12/26 02:03:28;;;;;;;27.17;1.95;;;10.40;53.30;;;;;;5054614;28;20194;-78
2021/12/26 02:05:54;;;;;;;31.17;2.47;;;;;;;;;;5055375;28;20176;-78
2021/12/26 02:08:20;;;;;;;28.92;2.42;;;10.30;53.60;;;;;;5056556;28;20203;-79
2021/12/26 02:10:46;;;;;;;15.10;1.77;;;10.40;53.80;;;;;;5055491;28;20213;-78
2021/12/26 02:13:12;;;;;;;31.25;2.38;;;10.30;53.40;;;;;;5055250;28;20305;-78
2021/12/26 02:15:39;;;;;;;14.88;1.85;;;;;;;;;;5063442;28;20258;-78
2021/12/26 02:18:07;;;;;;;21.40;2.15;;;10.30;53.90;;;;;;5072384;28;20220;-79
2021/12/26 02:23:32;;;;;;;32.75;2.28;;;10.20;54.70;;;;;;5072484;28;20196;-79
2021/12/26 02:28:44;;;;;;;16.05;1.60;;;10.20;54.40;;;;;;5052838;28;20592;-78
2021/12/26 02:31:11;;;;;;;46.72;3.75;;;;;;;;;;5054508;28;20678;-78
2021/12/26 02:33:37;;;;;;;41.58;2.80;;;;;;;;;;5054197;28;20179;-78
2021/12/26 02:36:04;;;;;;;63.88;3.50;;;;;;;;;;5051978;28;20666;-78
2021/12/26 02:38:30;;;;;;;37.20;2.90;;;;;;;;;;5053536;28;20183;-78
2021/12/26 02:40:57;;;;;;;37.58;4.28;;;10.40;53.20;;;;;;5053939;28;20662;-78
2021/12/26 02:43:24;;;;;;;39.20;3.20;;;;;;;;;;5053029;28;20592;-79
2021/12/26 02:45:50;;;;;;;30.80;3.20;;;;;;;;;;5052953;28;20265;-78
2021/12/26 02:48:17;;;;;;;26.17;2.78;;;;;;;;;;5053272;28;20172;-78
2021/12/26 02:50:44;;;;;;;37.70;3.75;;;;;;;;;;5054098;28;20195;-78
2021/12/26 02:53:12;;;;;;;39.42;2.90;;;9.80;58.00;;;;;;5053771;28;20184;-78
2021/12/26 02:55:38;;;;;;;29.88;2.03;;;;;;;;;;5052922;28;20260;-78
2021/12/26 02:58:06;;;;;;;34.50;2.50;;;;;;;;;;5053889;28;20177;-78
2021/12/26 03:00:33;;;;;;;31.95;2.38;;;;;;;;;;5053830;28;20176;-78
2021/12/26 03:03:00;;;;;;;43.38;2.72;;;;;;;;;;5051677;28;20181;-78
2021/12/26 03:05:29;;;;;;;34.92;2.78;;;10.00;54.90;;;;;;5053858;28;20179;-78
2021/12/26 03:07:56;;;;;;;34.80;2.67;;;10.10;54.00;;;;;;5053440;28;20640;-78
2021/12/26 03:10:24;;;;;;;36.17;2.47;;;10.10;54.60;;;;;;5053610;28;20325;-78
2021/12/26 03:12:51;;;;;;;38.78;2.90;;;;;;;;;;5053342;28;20176;-78
2021/12/26 03:15:17;;;;;;;35.20;2.40;;;;;;;;;;5053955;28;20181;-78
2021/12/26 03:17:43;;;;;;;29.58;2.60;;;10.00;54.70;;;;;;5051936;28;20686;-78
2021/12/26 03:20:11;;;;;;;40.23;3.17;;;9.90;56.60;;;;;;5053920;28;20183;-78
2021/12/26 03:22:37;;;;;;;28.95;2.15;;;;;;;;;;5053610;28;20193;-79
2021/12/26 03:25:04;;;;;;;37.45;2.72;;;;;;;;;;5052401;28;20550;-78
2021/12/26 03:27:30;;;;;;;50.38;3.95;;;10.00;55.10;;;;;;5052150;28;20215;-78
2021/12/26 03:29:56;;;;;;;37.27;2.57;;;;;;;;;;5053296;28;20180;-78
2021/12/26 03:32:23;;;;;;;39.92;2.60;;;;;;;;;;5053724;28;20635;-78
2021/12/26 03:34:50;;;;;;;35.20;2.58;;;;;;;;;;5053441;28;20718;-78
2021/12/26 03:37:16;;;;;;;43.50;3.03;;;;;;;;;;5053090;28;20266;-78
2021/12/26 03:39:42;;;;;;;21.55;2.08;;;;;;;;;;5053412;28;20175;-78
2021/12/26 03:42:08;;;;;;;35.08;2.85;;;;;;;;;;5053047;28;20176;-78
2021/12/26 03:44:34;;;;;;;30.67;2.75;;;;;;;;;;5056623;28;20230;-78
2021/12/26 03:47:00;;;;;;;41.80;2.45;;;;;;;;;;5056125;28;20197;-78
2021/12/26 03:49:27;;;;;;;38.80;2.70;;;;;;;;;;5056825;28;20528;-78
2021/12/26 03:51:53;;;;;;;37.97;3.15;;;10.20;53.50;;;;;;5057058;28;20469;-78
2021/12/26 03:54:18;;;;;;;40.37;3.20;;;10.40;53.10;;;;;;5055910;28;20176;-78
2021/12/26 03:56:44;;;;;;;32.63;2.33;;;;;;;;;;5056209;28;20184;-78
2021/12/26 03:59:10;;;;;;;43.80;2.55;;;;;;;;;;5056513;28;20553;-78
2021/12/26 04:01:36;;;;;;;18.63;2.05;;;;;;;;;;5056476;28;20179;-78
2021/12/26 04:04:03;;;;;;;25.92;2.40;;;10.10;53.40;;;;;;5057881;28;20545;-79
2021/12/26 04:06:29;;;;;;;42.42;3.28;;;10.20;53.60;;;;;;5057800;28;20258;-78
2021/12/26 04:08:55;;;;;;;28.95;2.53;;;;;;;;;;5057718;28;20198;-78
2021/12/26 04:11:21;;;;;;;30.67;2.40;;;10.10;53.80;;;;;;5057403;28;20294;-78
2021/12/26 04:13:47;;;;;;;25.67;2.07;;;10.30;53.20;;;;;;5057369;28;20203;-79
2021/12/26 04:16:13;;;;;;;101.97;5.27;;;;;;;;;;5056803;28;20205;-78
2021/12/26 04:18:39;;;;;;;32.37;2.97;;;;;;;;;;5057557;28;20410;-78
2021/12/26 04:21:05;;;;;;;36.13;2.35;;;;;;;;;;5056353;28;20415;-78
2021/12/26 04:23:32;;;;;;;31.33;2.55;;;;;;;;;;5057330;28;20178;-78
2021/12/26 04:25:59;;;;;;;73.03;4.35;;;;;;;;;;5057468;28;20530;-78
2021/12/26 04:28:25;;;;;;;25.95;2.35;;;;;;;;;;5057554;28;20172;-79
2021/12/26 04:30:51;;;;;;;53.83;3.60;;;;;;;;;;5057487;28;20576;-79
2021/12/26 04:33:16;;;;;;;32.10;2.60;;;9.80;55.60;;;;;;5055611;28;20430;-78
2021/12/26 04:35:42;;;;;;;30.80;2.33;;;9.80;56.50;;;;;;5056899;28;20183;-78
2021/12/26 04:38:08;;;;;;;29.67;2.53;;;;;;;;;;5056700;28;20191;-78
2021/12/26 04:40:34;;;;;;;23.30;2.58;;;9.90;55.80;;;;;;5056734;28;20178;-78
2021/12/26 04:43:00;;;;;;;32.20;2.37;;;;;;;;;;5056564;28;20239;-78
2021/12/26 04:45:26;;;;;;;26.38;2.42;;;;;;;;;;5058302;28;20180;-79
2021/12/26 04:47:52;;;;;;;30.85;2.60;;;10.10;53.50;;;;;;5056479;28;20720;-78
2021/12/26 04:50:21;;;;;;;39.42;3.28;;;;;;;;;;5056432;28;20203;-78
2021/12/26 04:52:48;;;;;;;19.33;2.00;;;;;;;;;;5057053;28;20184;-78
2021/12/26 04:55:16;;;;;;;54.13;4.18;;;10.20;53.90;;;;;;5095398;22;20176;-75
2021/12/26 04:57:41;;;;;;;7.32;2.33;;;10.30;54.30;;;;;;5050247;28;20250;-74
2021/12/26 05:00:09;;;;;;;8.30;2.57;;;10.40;53.50;;;;;;5053239;28;20650;-75
2021/12/26 05:02:36;;;;;;;7.93;2.08;;;10.40;52.90;;;;;;5053246;28;20221;-75
2021/12/26 05:05:07;;;;;;;7.65;2.15;;;10.30;54.20;;;;;;5053138;28;20258;-75
2021/12/26 05:07:33;;;;;;;7.25;2.47;;;10.30;54.00;;;;;;5052952;28;20173;-75
2021/12/26 05:09:59;;;;;;;4.70;1.52;;;10.30;54.60;;;;;;5052189;28;20305;-75
2021/12/26 05:12:25;;;;;;;5.90;2.30;;;10.30;54.30;;;;;;5052799;28;20655;-74
2021/12/26 05:14:51;;;;;;;10.10;2.20;;;10.20;54.40;;;;;;5052659;28;20402;-75
2021/12/26 05:17:17;;;;;;;7.95;1.60;;;10.10;54.60;;;;;;5052739;28;20199;-75
2021/12/26 05:19:43;;;;;;;6.27;1.63;;;10.20;54.60;;;;;;5053551;28;20184;-72
2021/12/26 05:22:08;;;;;;;7.50;2.10;;;10.10;54.60;;;;;;5052718;28;20629;-72
2021/12/26 05:24:34;;;;;;;5.83;1.77;;;10.00;55.00;;;;;;5052719;28;20176;-72
2021/12/26 05:27:00;;;;;;;6.90;1.70;;;9.80;56.90;;;;;;5051696;28;20202;-72
2021/12/26 05:29:25;;;;;;;14.80;2.30;;;9.30;60.50;;;;;;5052569;28;20188;-72
2021/12/26 05:31:52;;;;;;;5.80;1.77;;;9.50;60.40;;;;;;5051225;28;20581;-72
2021/12/26 05:34:19;;;;;;;11.98;2.60;;;9.40;60.10;;;;;;5052483;28;20171;-72
2021/12/26 05:36:44;;;;;;;6.18;1.70;;;9.50;60.00;;;;;;5052163;28;20228;-72
2021/12/26 05:39:10;;;;;;;9.50;2.97;;;9.60;59.80;;;;;;5052281;28;20204;-72
2021/12/26 05:41:36;;;;;;;10.03;2.50;;;9.70;58.60;;;;;;5052593;28;20589;-72
2021/12/26 05:44:02;;;;;;;6.93;2.27;;;9.80;58.50;;;;;;5052742;28;20222;-72
2021/12/26 05:46:27;;;;;;;5.93;1.73;;;10.00;56.70;;;;;;5052070;28;20185;-72
2021/12/26 05:48:53;;;;;;;7.10;2.17;;;10.10;55.80;;;;;;5052152;28;20716;-74
2021/12/26 05:51:19;;;;;;;5.63;1.60;;;10.10;55.30;;;;;;5052162;28;20705;-72
2021/12/26 05:53:44;;;;;;;7.37;2.00;;;10.10;54.80;;;;;;5048854;28;20168;-72
2021/12/26 05:56:10;;;;;;;9.60;2.93;;;10.00;55.70;;;;;;5041834;28;20208;-72
2021/12/26 05:58:36;;;;;;;7.93;2.20;;;9.90;56.70;;;;;;5039326;28;20554;-72
2021/12/26 06:01:02;;;;;;;6.83;2.10;;;9.70;58.30;;;;;;5042220;28;20268;-74
2021/12/26 06:03:28;;;;;;;10.68;2.47;;;9.70;57.30;;;;;;5039867;28;20591;-73
2021/12/26 06:05:53;;;;;;;6.80;1.80;;;9.90;57.00;;;;;;5041424;28;20200;-72
2021/12/26 06:08:19;;;;;;;6.93;1.73;;;10.20;56.30;;;;;;5039707;28;20183;-72
2021/12/26 06:10:44;;;;;;;6.67;2.03;;;9.90;56.40;;;;;;5041641;28;20203;-72
2021/12/26 06:13:10;;;;;;;6.53;2.33;;;10.10;55.10;;;;;;5040132;28;20164;-72
2021/12/26 06:15:36;;;;;;;6.87;2.30;;;10.20;54.40;;;;;;5040703;28;20207;-73
2021/12/26 06:18:02;;;;;;;6.47;1.80;;;10.20;54.70;;;;;;5041425;28;20256;-72
2021/12/26 06:20:27;;;;;;;6.67;2.03;;;10.20;54.50;;;;;;5041421;28;20179;-72
2021/12/26 06:22:53;;;;;;;8.90;2.83;;;10.20;54.30;;;;;;5040389;28;20256;-72
2021/12/26 06:25:19;;;;;;;6.13;2.03;;;10.00;54.70;;;;;;5040924;28;20204;-72
2021/12/26 06:27:44;;;;;;;9.07;2.13;;;10.00;54.90;;;;;;5041486;28;20554;-72
2021/12/26 06:30:12;;;;;;;7.87;2.17;;;10.10;55.00;;;;;;5038834;28;20447;-73
2021/12/26 06:32:38;;;;;;;7.55;2.22;;;10.30;54.40;;;;;;5031956;28;20543;-73
2021/12/26 06:35:04;;;;;;;7.53;2.30;;;10.30;53.80;;;;;;5031674;28;20176;-72
2021/12/26 06:37:31;;;;;;;7.28;1.98;;;10.30;53.50;;;;;;5035911;28;20323;-72
2021/12/26 06:39:59;;;;;;;5.78;2.13;;;10.10;54.60;;;;;;5055411;28;20702;-72
2021/12/26 06:42:25;;;;;;;7.60;2.00;;;10.10;54.40;;;;;;5059906;28;20460;-72
2021/12/26 06:44:50;;;;;;;7.85;2.08;;;10.10;54.30;;;;;;5071419;28;20183;-72
2021/12/26 06:47:16;;;;;;;9.10;2.40;;;10.10;54.90;;;;;;5054926;28;20281;-72
2021/12/26 06:49:42;;;;;;;6.83;2.00;;;10.20;54.20;;;;;;5051381;28;20180;-72
2021/12/26 06:52:09;;;;;;;16.25;2.58;;;10.10;54.10;;;;;;5051230;28;20254;-72
2021/12/26 06:54:36;;;;;;;8.52;2.15;;;10.10;54.40;;;;;;5055677;28;20179;-72
2021/12/26 06:57:03;;;;;;;8.32;2.63;;;10.10;54.30;;;;;;5071227;28;20205;-72
2021/12/26 06:59:29;;;;;;;7.07;2.42;;;10.10;54.70;;;;;;5071216;28;20213;-72
2021/12/26 07:01:55;;;;;;;6.80;2.00;;;10.10;54.30;;;;;;5070046;28;20228;-72
2021/12/26 07:04:20;;;;;;;7.13;2.13;;;10.10;54.40;;;;;;5070945;28;20183;-72
2021/12/26 07:06:46;;;;;;;8.70;2.30;;;10.10;54.70;;;;;;5070905;28;20200;-72
2021/12/26 07:09:12;;;;;;;4.70;1.67;;;10.10;54.70;;;;;;5071195;28;20406;-72
2021/12/26 07:11:38;;;;;;;7.40;2.10;;;10.10;54.20;;;;;;5066583;28;20201;-72
2021/12/26 07:14:04;;;;;;;8.43;1.90;;;10.10;54.90;;;;;;5050975;28;20183;-72
2021/12/26 07:16:30;;;;;;;9.15;2.17;;;10.20;55.00;;;;;;5050716;28;20434;-72
2021/12/26 07:18:55;;;;;;;9.23;2.50;;;10.10;54.70;;;;;;5053870;28;20183;-72
2021/12/26 07:21:21;;;;;;;11.23;2.00;;;10.10;54.50;;;;;;5054975;28;20663;-72
2021/12/26 07:23:47;;;;;;;13.82;2.75;;;10.20;54.40;;;;;;5053581;28;20603;-72
2021/12/26 07:26:13;;;;;;;10.47;2.60;;;10.20;54.10;;;;;;5054562;28;20276;-72
2021/12/26 07:28:38;;;;;;;8.63;2.80;;;10.50;52.70;;;;;;5054172;28;20174;-72
2021/12/26 07:31:04;;;;;;;8.03;2.10;;;10.50;52.80;;;;;;5054719;28;20307;-73
2021/12/26 07:33:30;;;;;;;10.30;2.17;;;10.40;53.00;;;;;;5054708;28;20263;-72
2021/12/26 07:35:55;;;;;;;10.13;2.90;;;10.80;53.90;;;;;;5054503;28;20203;-72
2021/12/26 07:38:21;;;;;;;9.20;1.90;;;10.40;53.50;;;;;;5053333;28;20168;-72
2021/12/26 07:40:47;;;;;;;5.73;1.90;;;10.30;53.50;;;;;;5054379;28;20177;-72
2021/12/26 07:43:13;;;;;;;8.70;2.23;;;10.30;53.30;;;;;;5054446;28;20588;-73
2021/12/26 07:45:40;;;;;;;8.52;2.50;;;10.30;53.70;;;;;;5058111;28;20438;-72
2021/12/26 07:48:06;;;;;;;9.13;2.05;;;10.20;54.00;;;;;;5074176;28;20186;-72
2021/12/26 07:50:32;;;;;;;8.67;2.30;;;10.00;55.20;;;;;;5074122;28;20195;-72
2021/12/26 07:53:04;;;;;;;11.10;2.55;;;9.90;57.10;;;;;;5074295;28;20255;-72
2021/12/26 07:55:30;;;;;;;9.75;2.70;;;10.10;56.10;;;;;;5074192;28;20702;-72
2021/12/26 07:57:56;;;;;;;11.13;2.20;;;10.20;55.60;;;;;;5073631;28;20182;-72
2021/12/26 08:00:22;;;;;;;11.73;2.70;;;10.20;55.00;;;;;;5074140;28;20410;-72
2021/12/26 08:02:48;;;;;;;8.35;2.10;;;10.20;55.50;;;;;;5073962;28;20175;-72
2021/12/26 08:05:15;;;;;;;13.20;2.75;;;10.10;54.90;;;;;;5074211;28;20179;-72
2021/12/26 08:07:40;;;;;;;11.85;2.40;;;10.00;56.00;;;;;;5073846;28;20171;-72
2021/12/26 08:10:07;;;;;;;10.37;2.40;;;10.10;55.80;;;;;;5074430;28;20186;-74
2021/12/26 08:12:32;;;;;;;16.75;4.63;;;10.10;55.80;;;;;;5072748;28;20215;-74
2021/12/26 08:15:01;;;;;;;9.97;3.23;;;10.20;55.40;;;;;;5073700;28;20206;-73
2021/12/26 08:17:27;;;;;;;10.48;2.38;;;10.20;55.50;;;;;;5073730;28;20661;-72
2021/12/26 08:19:53;;;;;;;9.27;2.35;;;10.00;56.40;;;;;;5073895;28;20263;-72
2021/12/26 08:22:19;;;;;;;10.53;2.33;;;10.00;56.90;;;;;;5074382;28;20892;-72
2021/12/26 08:24:44;;;;;;;14.73;3.37;;;9.80;59.60;;;;;;5073737;28;20171;-73
2021/12/26 08:27:10;;;;;;;6.53;2.30;;;10.10;56.80;;;;;;5073410;28;20223;-74
2021/12/26 08:29:36;;;;;;;11.07;2.97;;;10.40;54.50;;;;;;5073080;28;20772;-74
2021/12/26 08:32:02;;;;;;;7.63;2.30;;;10.30;55.20;;;;;;5073604;28;20512;-75
2021/12/26 08:34:28;;;;;;;8.73;2.27;;;10.30;55.60;;;;;;5073425;28;20171;-74
2021/12/26 08:37:01;;;;;;;10.43;2.70;;;10.20;55.20;;;;;;5073314;28;20435;-73
2021/12/26 08:39:30;;;;;;;11.55;2.25;;;10.20;56.00;;;;;;5073226;28;20250;-73
2021/12/26 08:41:56;;;;;;;7.68;2.60;;;10.10;56.60;;;;;;5072169;28;20181;-72
2021/12/26 08:44:22;;;;;;;11.83;2.70;;;9.70;60.40;;;;;;5073350;28;20178;-72
2021/12/26 08:46:48;;;;;;;12.52;2.35;;;9.80;60.20;;;;;;5060249;28;20235;-72
2021/12/26 08:49:15;;;;;;;13.67;3.20;;;9.80;58.70;;;;;;5053130;28;20184;-72
2021/12/26 08:51:41;;;;;;;8.80;1.92;;;9.80;58.80;;;;;;5053078;28;20456;-73
2021/12/26 08:54:07;;;;;;;8.40;2.45;;;10.10;57.30;;;;;;5053128;28;20168;-73
2021/12/26 08:56:32;;;;;;;10.17;2.37;;;10.20;57.00;;;;;;5052426;28;20647;-73
2021/12/26 08:58:58;;;;;;;9.13;2.53;;;10.20;56.10;;;;;;5053021;28;20417;-74
2021/12/26 09:01:24;;;;;;;7.17;1.93;;;10.10;57.10;;;;;;5053017;28;20207;-73
2021/12/26 09:03:49;;;;;;;11.57;2.43;;;10.30;57.20;;;;;;5053025;28;20176;-73
2021/12/26 09:06:15;;;;;;;7.20;2.43;;;10.40;56.70;;;;;;5052728;28;20204;-73
2021/12/26 09:08:41;;;;;;;8.30;2.17;;;10.60;55.80;;;;;;5052786;28;20169;-73
2021/12/26 09:11:07;;;;;;;15.77;3.00;;;10.80;54.50;;;;;;5052809;28;20197;-74
2021/12/26 09:13:33;;;;;;;6.43;2.03;;;11.30;53.70;;;;;;5052852;28;20228;-73
2021/12/26 09:15:59;;;;;;;7.18;2.63;;;11.00;53.80;;;;;;5052358;28;20186;-72
2021/12/26 09:18:25;;;;;;;8.73;2.22;;;11.00;54.00;;;;;;5052618;28;20175;-73
2021/12/26 09:20:51;;;;;;;14.13;3.00;;;10.90;53.50;;;;;;5052812;28;20176;-72
2021/12/26 09:23:17;;;;;;;10.60;2.23;;;10.90;53.90;;;;;;5051226;28;20471;-73
2021/12/26 09:25:43;;;;;;;13.02;2.58;;;10.90;54.10;;;;;;5052177;28;20197;-73
2021/12/26 09:28:09;;;;;;;13.20;2.80;;;10.90;54.80;;;;;;5051941;28;20183;-72
2021/12/26 09:30:35;;;;;;;11.65;3.10;;;11.00;54.40;;;;;;5052488;28;20191;-72
2021/12/26 09:33:01;;;;;;;10.88;2.38;;;11.00;53.90;;;;;;5052357;28;20537;-72
2021/12/26 09:35:27;;;;;;;10.17;2.80;;;11.10;54.10;;;;;;5052470;28;20203;-73
2021/12/26 09:37:52;;;;;;;10.98;3.15;;;11.00;54.10;;;;;;5052158;28;20168;-73
2021/12/26 09:40:18;;;;;;;11.23;3.20;;;11.00;53.50;;;;;;5051370;28;20189;-72
2021/12/26 09:42:45;;;;;;;9.53;2.70;;;11.00;53.20;;;;;;5050710;28;20225;-72
2021/12/26 09:45:12;;;;;;;9.15;2.58;;;10.90;53.90;;;;;;5052193;28;20774;-72
2021/12/26 09:47:39;;;;;;;8.90;2.33;;;10.90;54.10;;;;;;5071656;28;20206;-74
2021/12/26 09:50:06;;;;;;;13.95;3.42;;;11.10;53.80;;;;;;5071735;28;20169;-73
2021/12/26 09:52:33;;;;;;;8.82;2.47;;;11.20;53.30;;;;;;5071958;28;20673;-72
2021/12/26 09:54:59;;;;;;;9.30;2.53;;;11.30;53.60;;;;;;5071912;28;20189;-73
2021/12/26 09:57:25;;;;;;;12.30;3.45;;;11.40;52.90;;;;;;5071151;28;20283;-73
2021/12/26 09:59:51;;;;;;;8.80;2.23;;;11.50;53.00;;;;;;5071864;28;20262;-72
2021/12/26 10:02:18;;;;;;;9.48;2.28;;;11.30;52.50;;;;;;5071854;28;20169;-73
2021/12/26 10:04:45;;;;;;;13.55;3.33;;;11.30;53.40;;;;;;5070536;28;20189;-73
2021/12/26 10:07:23;;;;;;;9.55;2.50;;;11.40;52.90;;;;;;5071548;28;20195;-73
2021/12/26 10:09:50;;;;;;;9.73;2.47;;;11.50;53.60;;;;;;5071596;28;20182;-74
2021/12/26 10:12:17;;;;;;;10.05;2.40;;;11.70;52.50;;;;;;5071814;28;20782;-72
2021/12/26 10:14:48;;;;;;;11.65;2.90;;;11.70;52.10;;;;;;5071689;28;20183;-73
2021/12/26 10:17:19;;;;;;;9.30;2.75;;;11.70;51.80;;;;;;5070064;28;20195;-72
2021/12/26 10:19:47;;;;;;;11.55;3.15;;;12.00;53.10;;;;;;5071526;28;20174;-73
2021/12/26 10:22:25;;;;;;;9.47;2.47;;;12.00;52.60;;;;;;5071511;28;20182;-74
2021/12/26 10:24:54;;;;;;;10.00;2.80;;;12.00;51.90;;;;;;5071625;28;20389;-72
2021/12/26 10:27:28;;;;;;;10.52;2.60;;;12.00;52.50;;;;;;5071140;28;20199;-73
2021/12/26 10:30:05;;;;;;;12.20;3.83;;;12.10;51.90;;;;;;5071655;28;20192;-72
2021/12/26 10:32:37;;;;;;;8.05;2.78;;;11.70;52.30;;;;;;5071538;28;20199;-74
2021/12/26 10:35:07;;;;;;;10.45;2.38;;;11.70;52.70;;;;;;5071635;28;20151;-72
2021/12/26 10:37:42;;;;;;;8.77;2.10;;;11.80;53.10;;;;;;5071319;28;20260;-72
2021/12/26 10:40:22;;;;;;;7.50;2.03;;;11.60;53.60;;;;;;5071513;28;20408;-73
2021/12/26 10:42:50;;;;;;;10.40;2.42;;;11.80;54.00;;;;;;5071469;28;20876;-73
2021/12/26 10:45:19;;;;;;;8.60;2.37;;;11.90;53.00;;;;;;5070858;28;20175;-72
2021/12/26 10:47:53;;;;;;;11.73;2.67;;;11.60;54.40;;;;;;5051112;28;20410;-72
2021/12/26 10:50:24;;;;;;;8.20;2.20;;;11.40;56.10;;;;;;5051516;28;20897;-72
2021/12/26 10:52:59;;;;;;;11.80;2.83;;;11.60;56.70;;;;;;5054192;28;20939;-73
2021/12/26 10:55:41;;;;;;;14.33;2.90;;;11.10;59.00;;;;;;5054980;28;20461;-72
2021/12/26 10:58:14;;;;;;;11.67;2.90;;;11.10;59.00;;;;;;5054730;28;20417;-73
2021/12/26 11:00:41;;;;;;;10.30;3.17;;;10.50;62.40;;;;;;5055472;28;20434;-73
2021/12/26 11:03:14;;;;;;;12.13;2.87;;;10.70;64.60;;;;;;5053868;28;20457;-73
2021/12/26 11:05:40;;;;;;;10.07;2.67;;;11.40;60.10;;;;;;5054980;28;20473;-72
2021/12/26 11:08:11;;;;;;;13.67;3.83;;;11.50;58.50;;;;;;5054918;28;20826;-73
2021/12/26 11:10:39;;;;;;;10.20;2.70;;;11.50;57.80;;;;;;5054028;28;20477;-73
2021/12/26 11:13:17;;;;;;;12.80;2.87;;;11.60;56.90;;;;;;5055214;28;20406;-73
2021/12/26 11:15:45;;;;;;;9.37;2.50;;;12.10;56.10;;;;;;5055223;28;20583;-73
2021/12/26 11:18:14;;;;;;;12.77;3.10;;;12.70;54.60;;;;;;5054210;28;20406;-73
2021/12/26 11:20:41;;;;;;;11.37;3.60;;;13.10;53.90;;;;;;5055051;28;20422;-73
2021/12/26 11:23:13;;;;;;;10.77;3.00;;;13.40;51.90;;;;;;5054997;28;20415;-73
2021/12/26 11:25:44;;;;;;;10.10;2.63;;;13.20;50.00;;;;;;5055008;28;20446;-73
2021/12/26 11:28:12;;;;;;;10.57;3.23;;;13.00;50.80;;;;;;5054201;28;20416;-73
2021/12/26 11:30:39;;;;;;;8.17;2.50;;;12.90;50.40;;;;;;5054753;28;20449;-73
2021/12/26 11:33:05;;;;;;;14.17;3.37;;;12.80;51.50;;;;;;5054834;28;20411;-74
2021/12/26 11:35:32;;;;;;;11.17;3.10;;;12.80;51.80;;;;;;5055542;28;20427;-73
2021/12/26 11:38:00;;;;;;;12.35;2.78;;;12.90;50.50;;;;;;5054732;28;20515;-73
2021/12/26 11:40:26;;;;;;;11.93;2.90;;;13.20;51.60;;;;;;5054326;28;20542;-73
2021/12/26 11:43:06;;;;;;;14.23;3.33;;;13.60;48.80;;;;;;5053227;28;20422;-73
2021/12/26 11:45:53;;;;;;;9.40;2.87;;;14.10;47.90;;;;;;5056891;28;20432;-73
2021/12/26 11:48:40;;;;;;;12.13;3.50;;;14.70;44.10;;;;;;5074168;28;20416;-74
2021/12/26 11:51:25;;;;;;;16.50;3.80;;;14.90;44.70;;;;;;5074295;28;21017;-73
2021/12/26 11:54:21;;;;;;;12.73;3.33;;;14.70;44.20;;;;;;5073934;28;20480;-73
2021/12/26 11:57:01;;;;;;;14.57;4.70;;;15.10;43.30;;;;;;5072464;28;20819;-73
2021/12/26 11:59:50;;;;;;;9.20;2.80;;;15.40;42.40;;;;;;5073020;28;20940;-73
2021/12/26 12:02:35;;;;;;;12.90;3.30;;;15.80;41.90;;;;;;5074225;28;20500;-74
2021/12/26 12:05:12;;;;;;;13.03;3.93;;;15.80;40.40;;;;;;5073174;28;20490;-73
2021/12/26 12:07:46;;;;;;;17.17;4.10;;;15.30;42.70;;;;;;5073765;28;20405;-73
2021/12/26 12:10:42;;;;;;;17.70;3.93;;;14.40;46.00;;;;;;5073605;28;20423;-73
2021/12/26 12:13:11;;;;;;;16.80;4.00;;;13.80;48.80;;;;;;5073628;28;20421;-73
2021/12/26 12:15:46;;;;;;;13.40;3.20;;;13.40;51.80;;;;;;5073846;28;20477;-73
2021/12/26 12:18:16;;;;;;;14.80;3.60;;;13.20;51.50;;;;;;5073570;28;20910;-72
2021/12/26 12:20:42;;;;;;;15.70;4.30;;;12.70;54.20;;;;;;5074344;28;20422;-72
2021/12/26 12:23:08;;;;;;;17.03;4.00;;;12.50;57.10;;;;;;5073868;28;20404;-73
2021/12/26 12:25:33;;;;;;;16.53;3.83;;;12.20;57.60;;;;;;5073809;28;20792;-72
2021/12/26 12:28:06;;;;;;;15.00;3.23;;;12.00;59.70;;;;;;5073170;28;20404;-73
2021/12/26 12:30:32;;;;;;;8.77;2.40;;;12.20;59.70;;;;;;5072446;28;20184;-72
2021/12/26 12:33:25;;;;;;;15.17;3.53;;;12.10;60.60;;;;;;5073729;28;20398;-73
2021/12/26 12:35:55;;;;;;;11.00;3.13;;;12.20;61.00;;;;;;5073412;28;20423;-73
2021/12/26 12:38:25;;;;;;;13.10;3.10;;;12.90;56.10;;;;;;5073457;28;20890;-73
2021/12/26 12:40:51;;;;;;;13.23;5.03;;;12.50;56.30;;;;;;5073613;28;20496;-73
2021/12/26 12:43:19;;;;;;;14.17;3.20;;;13.10;54.70;;;;;;5073366;28;20991;-73
2021/12/26 12:46:04;;;;;;;13.50;2.93;;;13.40;52.60;;;;;;5068931;28;20426;-73
2021/12/26 12:48:40;;;;;;;14.77;3.57;;;13.60;53.90;;;;;;5053070;28;20482;-73
2021/12/26 12:51:14;;;;;;;15.03;3.70;;;13.20;54.10;;;;;;5053380;28;20462;-73
2021/12/26 12:53:44;;;;;;;15.30;2.97;;;13.00;55.00;;;;;;5053122;28;20850;-73
2021/12/26 12:56:33;;;;;;;13.50;4.27;;;13.00;53.80;;;;;;5052638;28;20446;-72
2021/12/26 13:02:00;;;;;;;10.77;2.30;;;12.50;57.40;;;;;;5053111;28;20413;-73
2021/12/26 13:04:40;;;;;;;12.70;3.07;;;12.70;57.40;;;;;;5052757;28;20444;-73
2021/12/26 13:07:06;;;;;;;18.37;4.37;;;12.70;57.20;;;;;;5052554;28;20508;-73
2021/12/26 13:09:33;;;;;;;9.53;2.80;;;13.10;54.70;;;;;;5052754;28;20748;-73
2021/12/26 13:12:05;;;;;;;11.23;2.60;;;12.90;56.20;;;;;;5052906;28;20457;-73
2021/12/26 13:14:40;;;;;;;11.67;2.57;;;12.90;56.00;;;;;;5052407;28;20892;-73
2021/12/26 13:17:10;;;;;;;12.20;3.53;;;13.40;54.80;;;;;;5051896;28;20990;-73